Time;durP1;ratioP1;P1;durP2;ratioP2;P2;SDS_P1;SDS_P2;PMS_P1;PMS_P2;Temp;Humidity;BMP_temperature;BMP_pressure;BME280_temperature;BME280_humidity;BME280_pressure;Samples;Min_cycle;Max_cycle;Signal;HPM_P1;HPM_P2
2022/10/04 00:01:16;;;;;;;6.50;1.98;;;;;;;12.03;62.84;98953.31;4473494;32;20496;-80
2022/10/04 00:04:02;;;;;;;8.40;2.05;;;;;;;11.76;63.66;98945.16;4487153;32;20115;-79
2022/10/04 00:06:28;;;;;;;9.57;2.53;;;;;;;12.12;62.78;98949.28;4487909;32;20119;-80
2022/10/04 00:09:00;;;;;;;9.10;2.15;;;;;;;11.86;63.67;98951.63;4487719;32;20352;-79
2022/10/04 00:11:32;;;;;;;8.80;2.15;;;;;;;11.50;65.00;98946.63;4473818;32;20504;-79
2022/10/04 00:14:00;;;;;;;8.63;2.00;;;;;;;11.58;64.69;98944.41;4473578;32;20432;-80
2022/10/04 00:16:34;;;;;;;6.80;1.85;;;;;;;11.60;64.61;98947.81;4473590;32;20593;-80
2022/10/04 00:19:40;;;;;;;7.12;2.22;;;;;;;11.84;64.13;98948.22;4473658;32;20116;-80
2022/10/04 00:22:11;;;;;;;9.25;2.30;;;;;;;11.57;65.10;98959.41;4473353;32;20569;-80
2022/10/04 00:24:37;;;;;;;6.72;1.87;;;;;;;11.81;64.35;98951.03;4486794;32;20115;-79
2022/10/04 00:27:23;;;;;;;10.73;2.28;;;;;;;11.84;64.29;98952.62;4487465;32;20096;-79
2022/10/04 00:30:00;;;;;;;7.60;1.95;;;;;;;11.47;65.70;98952.06;4473198;32;20130;-79
2022/10/04 00:32:28;;;;;;;6.63;2.20;;;;;;;11.27;66.43;98940.00;4487559;32;20080;-79
2022/10/04 00:34:53;;;;;;;;;;;;;;;11.54;65.67;98949.00;4487876;32;20085;-79
2022/10/04 00:37:24;;;;;;;8.98;2.20;;;;;;;11.61;65.44;98957.44;4487576;32;20016;-79
2022/10/04 00:40:04;;;;;;;9.32;2.10;;;;;;;11.60;65.58;98945.16;4473368;32;20518;-80
2022/10/04 00:42:30;;;;;;;9.05;2.45;;;;;;;11.63;65.84;98959.97;4473244;32;20098;-80
2022/10/04 00:45:02;;;;;;;9.25;2.30;;;;;;;11.67;65.84;98951.81;4487332;32;20072;-79
2022/10/04 00:47:34;;;;;;;8.70;2.33;;;;;;;11.87;65.41;98942.75;4487404;32;20436;-80
2022/10/04 00:50:13;;;;;;;9.05;2.37;;;;;;;11.70;65.88;98956.91;4473174;32;20399;-79
2022/10/04 00:52:42;;;;;;;9.68;2.42;;;;;;;12.19;64.47;98948.00;4487481;32;20131;-80
2022/10/04 00:55:08;;;;;;;8.45;2.35;;;;;;;11.81;65.22;98951.03;4473161;32;20081;-80
2022/10/04 00:57:41;;;;;;;8.45;2.25;;;;;;;12.14;64.33;98947.41;4473161;32;20126;-81
2022/10/04 01:00:11;;;;;;;11.02;2.85;;;;;;;12.22;64.19;98937.25;4487412;32;20494;-79
2022/10/04 01:02:37;;;;;;;12.07;2.72;;;;;;;12.12;64.36;98947.50;4472926;32;20084;-80
2022/10/04 01:05:09;;;;;;;8.95;2.47;;;;;;;12.05;64.58;98937.38;4472994;32;20130;-80
2022/10/04 01:07:38;;;;;;;8.88;2.50;;;;;;;11.95;65.00;98934.41;4473442;32;20123;-80
2022/10/04 01:10:09;;;;;;;9.15;2.53;;;;;;;11.59;66.13;98938.22;4472912;32;20119;-80
2022/10/04 01:12:48;;;;;;;7.00;2.10;;;;;;;12.00;65.05;98932.38;4472994;32;20080;-80
2022/10/04 01:15:32;;;;;;;9.45;2.30;;;;;;;11.70;66.20;98933.16;4487344;32;20049;-80
2022/10/04 01:18:15;;;;;;;8.85;2.40;;;;;;;11.81;65.82;98932.56;4473239;32;20108;-80
2022/10/04 01:21:07;;;;;;;8.80;2.42;;;;;;;11.89;65.81;98926.84;4473046;32;20097;-79
2022/10/04 01:23:36;;;;;;;8.02;2.53;;;;;;;11.81;66.21;98928.13;4478017;32;20088;-78
2022/10/04 01:26:04;;;;;;;9.98;2.70;;;;;;;11.41;67.52;98922.47;4487250;32;20121;-79
2022/10/04 01:28:30;;;;;;;9.95;2.30;;;;;;;11.34;67.90;98915.00;4472948;32;20105;-79
2022/10/04 01:30:55;;;;;;;9.40;2.55;;;;;;;11.33;68.24;98927.31;4472881;32;20148;-79
2022/10/04 01:33:21;;;;;;;11.07;2.72;;;;;;;11.56;67.35;98926.03;4487170;32;20080;-79
2022/10/04 01:35:47;;;;;;;9.55;2.87;;;;;;;11.66;67.12;98905.25;4471516;32;20161;-79
2022/10/04 01:38:12;;;;;;;9.30;2.42;;;;;;;11.83;66.40;98912.19;4486928;32;20089;-79
2022/10/04 01:40:45;;;;;;;11.27;2.58;;;;;;;11.91;66.15;98902.06;4472752;32;20100;-78
2022/10/04 01:43:13;;;;;;;11.30;2.80;;;;;;;12.04;65.85;98890.81;4472858;32;20100;-80
2022/10/04 01:45:49;;;;;;;10.27;2.30;;;;;;;11.79;66.15;98915.94;4472791;32;20107;-80
2022/10/04 01:48:18;;;;;;;8.50;2.55;;;;;;;11.83;66.20;98898.16;4487006;32;20104;-79
2022/10/04 01:50:50;;;;;;;8.48;2.40;;;;;;;11.76;66.42;98905.56;4487027;32;20499;-79
2022/10/04 01:53:15;;;;;;;10.48;2.85;;;;;;;11.61;66.95;98894.13;4472958;32;20084;-79
2022/10/04 01:55:44;;;;;;;9.60;2.40;;;;;;;11.61;67.06;98894.13;4486803;32;20110;-80
2022/10/04 01:58:17;;;;;;;8.82;3.25;;;;;;;11.64;66.60;98893.91;4472744;32;20492;-79
2022/10/04 02:00:51;;;;;;;9.90;2.33;;;;;;;11.86;66.22;98876.84;4486884;32;20157;-80
2022/10/04 02:03:20;;;;;;;6.97;2.15;;;;;;;12.06;65.31;98884.47;4472651;32;20084;-79
2022/10/04 02:05:52;;;;;;;8.25;2.35;;;;;;;11.91;66.01;98907.34;4459411;32;20102;-80
2022/10/04 02:08:24;;;;;;;10.10;2.60;;;;;;;11.82;66.41;98902.59;4472830;32;20131;-79
2022/10/04 02:10:50;;;;;;;8.88;2.50;;;;;;;11.91;65.95;98882.75;4472837;32;20112;-80
2022/10/04 02:13:20;;;;;;;7.75;2.25;;;;;;;12.25;64.83;98900.09;4472701;32;20080;-80
2022/10/04 02:15:46;;;;;;;9.45;2.47;;;;;;;12.14;65.12;98902.50;4487110;32;20194;-80
2022/10/04 02:18:20;;;;;;;6.90;1.98;;;;;;;11.69;66.68;98912.16;4472424;32;20116;-78
2022/10/04 02:20:47;;;;;;;9.55;2.55;;;;;;;11.76;66.44;98897.66;4486596;32;20105;-82
2022/10/04 02:23:13;;;;;;;9.77;2.60;;;;;;;11.93;66.09;98909.91;4472434;32;20096;-79
2022/10/04 02:25:38;;;;;;;7.85;2.47;;;;;;;11.87;66.28;98904.94;4472099;32;20076;-80
2022/10/04 02:28:09;;;;;;;8.73;2.30;;;;;;;11.85;66.61;98910.31;4459171;32;20101;-81
2022/10/04 02:30:37;;;;;;;8.50;2.42;;;;;;;11.66;67.43;98910.50;4472618;32;20780;-80
2022/10/04 02:33:02;;;;;;;12.20;2.45;;;;;;;11.99;66.20;98898.97;4486562;32;20084;-80
2022/10/04 02:35:34;;;;;;;7.82;2.50;;;;;;;12.04;66.06;98904.84;4486453;32;20121;-80
2022/10/04 02:38:13;;;;;;;10.00;2.30;;;;;;;12.05;65.98;98913.63;4486371;32;20474;-80
2022/10/04 02:40:47;;;;;;;9.23;2.28;;;;;;;11.94;66.62;98922.19;4472215;32;20112;-81
2022/10/04 02:43:20;;;;;;;9.90;2.35;;;;;;;11.61;67.98;98908.16;4472177;32;20398;-80
2022/10/04 02:46:06;;;;;;;7.70;2.25;;;;;;;11.73;67.61;98901.31;4472214;32;20450;-80
2022/10/04 02:48:31;;;;;;;8.20;2.80;;;;;;;11.66;67.92;98904.41;4488371;32;20115;-80
2022/10/04 02:51:05;;;;;;;10.40;2.30;;;;;;;11.70;67.92;98906.75;4488156;32;20135;-80
2022/10/04 02:53:58;;;;;;;9.13;2.40;;;;;;;11.86;67.28;98908.50;4488346;32;20088;-80
2022/10/04 02:56:24;;;;;;;10.60;2.72;;;;;;;11.60;68.18;98908.22;4479476;32;20099;-80
2022/10/04 02:58:50;;;;;;;7.47;2.05;;;;;;;11.89;66.94;98917.16;4488113;32;20096;-79
2022/10/04 03:01:28;;;;;;;12.70;2.53;;;;;;;11.78;67.68;98911.59;4488149;32;20088;-80
2022/10/04 03:03:54;;;;;;;8.32;2.45;;;;;;;11.71;67.48;98924.31;4473811;32;20428;-80
2022/10/04 03:06:21;;;;;;;10.55;2.87;;;;;;;11.23;69.28;98918.22;4488137;32;20080;-79
2022/10/04 03:08:48;;;;;;;9.10;2.70;;;;;;;11.46;68.69;98909.03;4473855;32;20104;-80
2022/10/04 03:11:14;;;;;;;8.63;2.42;;;;;;;11.77;67.59;98904.63;4473946;32;20384;-79
2022/10/04 03:13:44;;;;;;;12.52;2.75;;;;;;;11.84;67.35;98903.34;4473748;32;20085;-79
2022/10/04 03:16:09;;;;;;;10.70;2.45;;;;;;;11.83;67.63;98914.84;4488044;32;20102;-79
2022/10/04 03:18:35;;;;;;;8.27;2.35;;;;;;;11.76;67.96;98914.34;4488095;32;20077;-80
2022/10/04 03:21:04;;;;;;;10.93;2.33;;;;;;;11.64;68.46;98909.75;4487928;32;20092;-79
2022/10/04 03:23:30;;;;;;;10.98;2.67;;;;;;;11.73;68.01;98909.25;4488067;32;20160;-80
2022/10/04 03:26:29;;;;;;;8.15;2.30;;;;;;;11.47;68.79;98901.94;4487813;32;20137;-80
2022/10/04 03:28:56;;;;;;;7.82;2.28;;;;;;;11.40;69.39;98920.75;4473870;32;20100;-80
2022/10/04 03:31:23;;;;;;;8.93;2.67;;;;;;;11.49;69.24;98921.19;4473643;32;20096;-79
2022/10/04 03:33:48;;;;;;;12.68;2.70;;;;;;;11.76;68.20;98914.34;4473772;32;20084;-80
2022/10/04 03:36:16;;;;;;;10.25;2.92;;;;;;;11.67;68.64;98921.94;4473671;32;20129;-80
2022/10/04 03:38:42;;;;;;;8.90;2.62;;;;;;;11.53;69.16;98922.69;4473725;32;20468;-80
2022/10/04 03:41:09;;;;;;;11.07;2.62;;;;;;;11.56;68.99;98943.66;4460635;32;20202;-80
2022/10/04 03:43:38;;;;;;;10.52;2.60;;;;;;;11.36;69.92;98926.31;4473593;32;20080;-79
2022/10/04 03:46:06;;;;;;;9.52;2.37;;;;;;;11.36;70.03;98934.22;4473656;32;20092;-80
2022/10/04 03:48:40;;;;;;;8.98;2.30;;;;;;;11.50;69.69;98934.28;4473826;32;20104;-79
2022/10/04 03:51:07;;;;;;;9.50;2.28;;;;;;;11.27;70.84;98921.53;4473650;32;20165;-79
2022/10/04 03:53:42;;;;;;;9.17;2.40;;;;;;;11.76;68.75;98921.41;4473632;32;20111;-80
2022/10/04 03:56:20;;;;;;;8.65;2.53;;;;;;;11.49;69.27;98923.81;4473679;32;20072;-81
2022/10/04 03:58:46;;;;;;;9.40;2.62;;;;;;;11.71;68.90;98913.75;4472745;32;20496;-80
2022/10/04 04:01:38;;;;;;;8.23;2.30;;;;;;;11.57;69.43;98917.19;4473361;32;20117;-81
2022/10/04 04:04:21;;;;;;;6.80;2.40;;;;;;;11.48;69.74;98915.06;4473568;32;20075;-79
2022/10/04 04:07:01;;;;;;;9.10;2.60;;;;;;;11.37;69.82;98906.88;4487687;32;20091;-81
2022/10/04 04:09:38;;;;;;;9.77;2.30;;;;;;;11.53;69.20;98913.03;4473333;32;20131;-81
2022/10/04 04:12:10;;;;;;;11.45;2.50;;;;;;;11.74;68.63;98908.31;4487614;32;20448;-81
2022/10/04 04:14:37;;;;;;;9.48;2.42;;;;;;;11.70;68.86;98921.75;4473606;32;20102;-81
2022/10/04 04:17:26;;;;;;;9.30;2.80;;;;;;;11.61;68.67;98933.69;4473465;32;20480;-81
2022/10/04 04:19:53;;;;;;;8.10;2.28;;;;;;;11.73;67.88;98921.59;4487682;32;20107;-81
2022/10/04 04:22:18;;;;;;;8.48;2.47;;;;;;;11.87;67.45;98940.13;4473280;32;20179;-81
2022/10/04 04:24:44;;;;;;;9.25;2.17;;;;;;;11.73;67.55;98933.00;4473114;32;20085;-81
2022/10/04 04:27:11;;;;;;;8.15;2.15;;;;;;;12.07;66.99;98946.06;4487898;32;20080;-81
2022/10/04 04:29:52;;;;;;;8.10;2.20;;;;;;;11.70;68.60;98948.97;4473560;32;20108;-81
2022/10/04 04:32:23;;;;;;;9.52;2.60;;;;;;;11.98;67.93;98944.81;4487760;32;20085;-81
2022/10/04 04:35:05;;;;;;;9.15;2.55;;;;;;;11.81;68.46;98943.94;4473429;32;20080;-81
2022/10/04 04:37:32;;;;;;;8.15;2.58;;;;;;;11.75;68.59;98946.94;4487520;32;20064;-80
2022/10/04 04:40:13;;;;;;;10.40;2.65;;;;;;;11.45;70.22;98954.78;4473292;32;20156;-81
2022/10/04 04:42:38;;;;;;;7.93;2.53;;;;;;;11.83;69.01;98940.38;4468707;32;20101;-81
2022/10/04 04:45:13;;;;;;;8.05;2.80;;;;;;;11.70;69.40;98948.16;4457566;32;20133;-81
2022/10/04 04:47:43;;;;;;;8.15;2.60;;;;;;;11.67;69.45;98953.62;4460365;32;20124;-82
2022/10/04 04:50:16;;;;;;;8.23;2.50;;;;;;;11.88;69.05;98944.47;4457685;32;20177;-81
2022/10/04 04:52:45;;;;;;;11.38;2.80;;;;;;;12.17;67.61;98947.25;4471800;32;20123;-81
2022/10/04 04:55:18;;;;;;;10.00;2.42;;;;;;;12.06;68.09;98939.09;4471629;32;20118;-81
2022/10/04 04:57:46;;;;;;;7.93;1.98;;;;;;;12.58;66.10;98950.06;4457587;32;20388;-81
2022/10/04 05:00:17;;;;;;;9.50;2.20;;;;;;;12.49;66.39;98961.16;4467846;32;20134;-81
2022/10/04 05:02:51;;;;;;;9.65;2.40;;;;;;;12.12;68.07;98979.19;4487352;32;20088;-80
2022/10/04 05:05:16;;;;;;;8.60;2.17;;;;;;;12.78;65.70;98977.06;4487368;32;20120;-79
2022/10/04 05:07:42;;;;;;;8.40;1.80;;;;;;;12.71;65.86;98976.59;4487272;32;20080;-79
2022/10/04 05:10:33;;;;;;;6.60;2.05;;;;;;;12.41;66.80;98979.28;4472798;32;20418;-80
2022/10/04 05:13:00;;;;;;;7.82;2.20;;;;;;;12.33;67.41;98981.53;4473059;32;20126;-81
2022/10/04 05:15:27;;;;;;;6.18;2.03;;;;;;;12.39;67.27;98981.16;4472977;32;20076;-81
2022/10/04 05:17:53;;;;;;;7.85;2.62;;;;;;;12.50;66.60;98980.53;4473226;32;20076;-81
2022/10/04 05:20:18;;;;;;;8.40;2.00;;;;;;;12.15;68.01;98986.94;4487471;32;20438;-81
2022/10/04 05:22:46;;;;;;;6.45;2.12;;;;;;;12.23;67.99;98996.19;4473174;32;20357;-81
2022/10/04 05:25:25;;;;;;;6.07;2.05;;;;;;;12.56;66.31;98990.75;4473014;32;20237;-80
2022/10/04 05:27:52;;;;;;;11.05;2.28;;;;;;;12.73;66.13;98993.22;4487486;32;20092;-80
2022/10/04 05:30:41;;;;;;;7.60;2.10;;;;;;;12.89;64.75;98993.13;4487104;32;20092;-81
2022/10/04 05:33:10;;;;;;;7.37;2.20;;;;;;;12.92;64.96;99002.66;4487036;32;20080;-81
2022/10/04 05:36:10;;;;;;;8.60;2.30;;;;;;;12.93;65.21;99001.75;4487114;32;20076;-81
2022/10/04 05:38:47;;;;;;;6.28;1.95;;;;;;;13.03;65.22;98992.28;4407389;32;20094;-81
2022/10/04 05:41:15;;;;;;;11.32;2.50;;;;;;;13.18;64.70;99009.03;4407498;32;20118;-80
2022/10/04 05:43:46;;;;;;;6.37;2.15;;;;;;;13.10;64.95;99006.84;4407519;32;20136;-80
2022/10/04 05:46:26;;;;;;;9.35;2.40;;;;;;;13.19;64.78;99005.41;4394991;32;20097;-81
2022/10/04 05:48:57;;;;;;;9.40;2.30;;;;;;;13.35;64.54;99013.31;4407281;32;20078;-80
2022/10/04 05:51:45;;;;;;;7.53;2.20;;;;;;;12.61;66.69;99014.25;4395015;32;20137;-81
2022/10/04 05:54:11;;;;;;;7.57;2.60;;;;;;;12.98;65.56;99015.53;4407190;32;20102;-81
2022/10/04 05:57:07;;;;;;;12.23;2.60;;;;;;;12.69;66.80;99018.16;4394616;32;20418;-81
2022/10/04 05:59:48;;;;;;;8.10;2.78;;;;;;;13.46;64.43;99020.56;4407741;32;20090;-81
2022/10/04 06:02:32;;;;;;;9.55;2.40;;;;;;;13.50;64.37;99016.75;4407269;32;20156;-81
2022/10/04 06:05:08;;;;;;;9.65;2.60;;;;;;;13.09;65.77;99021.00;4407373;32;20575;-79
2022/10/04 06:07:39;;;;;;;8.48;3.00;;;;;;;13.55;64.16;99022.62;4394629;32;20371;-82
2022/10/04 06:10:37;;;;;;;9.40;2.42;;;;;;;13.46;64.67;99026.72;4394604;32;20112;-82
2022/10/04 06:13:37;;;;;;;8.52;2.50;;;;;;;13.75;63.67;99024.87;4376885;32;20108;-91
2022/10/04 06:16:18;;;;;;;;;;;;;;;14.02;62.81;99036.41;4436271;32;20139;-89
2022/10/04 06:19:02;;;;;;;6.20;2.40;;;;;;;13.08;65.07;99047.56;4424305;32;20012;-82
2022/10/04 06:21:30;;;;;;;9.15;2.20;;;;;;;13.48;64.78;99051.28;4433421;32;20116;-81
2022/10/04 06:24:02;;;;;;;7.05;2.40;;;;;;;13.24;65.29;99045.69;4445750;32;20489;-81
2022/10/04 06:26:52;;;;;;;7.62;2.15;;;;;;;13.37;65.04;99049.31;4449914;32;20600;-82
2022/10/04 06:29:34;;;;;;;9.25;2.58;;;;;;;13.53;64.59;99048.34;4446234;32;20384;-81
2022/10/04 06:32:15;;;;;;;6.95;2.37;;;;;;;13.53;64.90;99061.59;4433247;32;20166;-82
2022/10/04 06:34:50;;;;;;;11.30;2.90;;;;;;;13.67;64.34;99063.34;4433527;32;20137;-80
2022/10/04 06:37:18;;;;;;;8.27;2.17;;;;;;;13.77;64.59;99069.75;4448075;32;20109;-82
2022/10/04 06:39:53;;;;;;;10.48;2.83;;;;;;;13.80;64.03;99058.16;4449256;32;20093;-82
2022/10/04 06:42:48;;;;;;;9.60;2.62;;;;;;;13.14;66.95;99053.31;4450643;32;20104;-82
2022/10/04 06:45:35;;;;;;;9.80;2.53;;;;;;;13.09;66.96;99054.53;4449515;32;20128;-82
2022/10/04 06:48:15;;;;;;;7.93;2.12;;;;;;;13.21;66.73;99056.44;4453842;32;20236;-81
2022/10/04 06:50:40;;;;;;;6.85;2.50;;;;;;;13.20;66.66;99059.19;4463246;32;20092;-82
2022/10/04 06:53:09;;;;;;;7.80;2.25;;;;;;;13.52;66.04;99057.22;4470645;32;20115;-80
2022/10/04 06:56:04;;;;;;;7.35;2.10;;;;;;;13.67;65.37;99063.34;4480606;31;20096;-81
2022/10/04 06:58:47;;;;;;;7.57;1.83;;;;;;;13.52;65.56;99063.37;4480967;31;20537;-82
2022/10/04 07:01:29;;;;;;;7.37;2.20;;;;;;;13.55;65.99;99057.88;4473303;32;20107;-86
2022/10/04 07:04:19;;;;;;;7.87;2.30;;;;;;;13.65;65.57;99063.44;4474931;32;20110;-83
2022/10/04 07:07:22;;;;;;;5.53;1.80;;;;;;;13.50;66.11;99065.28;4470478;32;20089;-83
2022/10/04 07:09:42;;;;;;;5.93;1.80;;;;;;;13.44;65.90;99064.78;4482629;32;20210;-83
2022/10/04 07:12:11;;;;;;;6.03;1.90;;;;;;;13.76;65.41;99073.38;4475923;32;20104;-85
2022/10/04 07:14:44;;;;;;;5.55;1.75;;;;;;;13.82;65.15;99075.62;4442761;32;20089;-84
2022/10/04 07:17:19;;;;;;;7.05;1.70;;;;;;;13.56;66.02;99074.62;4474794;32;20109;-85
2022/10/04 07:19:47;;;;;;;8.07;1.80;;;;;;;13.91;64.98;99080.34;4476376;32;20101;-87
2022/10/04 07:22:24;;;;;;;5.62;1.60;;;;;;;13.65;65.83;99078.50;4468946;32;20130;-83
2022/10/04 07:24:50;;;;;;;7.20;1.67;;;;;;;13.96;64.61;99074.75;4476535;31;20084;-86
2022/10/04 07:27:40;;;;;;;8.50;1.95;;;;;;;13.98;64.15;99078.16;4471891;32;20105;-85
2022/10/04 07:30:10;;;;;;;7.78;2.08;;;;;;;13.93;64.43;99075.81;4481699;31;20140;-86
2022/10/04 07:32:37;;;;;;;6.80;2.08;;;;;;;14.12;64.06;99079.94;4479903;32;20384;-82
2022/10/04 07:35:09;;;;;;;7.57;1.67;;;;;;;14.31;63.07;99077.78;4472600;32;20105;-85
2022/10/04 07:38:05;;;;;;;6.65;1.85;;;;;;;14.48;62.45;99083.78;4482001;31;20193;-83
2022/10/04 07:40:39;;;;;;;7.43;2.17;;;;;;;14.72;61.58;99078.69;4475956;32;20395;-86
2022/10/04 07:43:08;;;;;;;4.15;1.52;;;;;;;14.36;62.61;99083.62;4483952;32;20118;-83
2022/10/04 07:45:38;;;;;;;6.55;1.75;;;;;;;14.17;62.86;99085.78;4484343;31;20088;-84
2022/10/04 07:48:11;;;;;;;8.70;2.17;;;;;;;13.75;63.69;99087.53;4477886;32;20101;-83
2022/10/04 07:51:03;;;;;;;7.82;1.90;;;;;;;13.94;63.44;99090.72;4469645;32;20119;-82
2022/10/04 07:53:43;;;;;;;7.43;2.17;;;;;;;14.11;62.45;99102.06;4483261;32;20110;-84
2022/10/04 07:56:17;;;;;;;8.30;2.00;;;;;;;14.09;62.81;99090.72;4483437;31;20081;-84
2022/10/04 07:59:07;;;;;;;6.43;1.70;;;;;;;13.91;63.11;99092.75;4469978;32;20188;-86
2022/10/04 08:01:36;;;;;;;6.65;1.80;;;;;;;14.27;62.59;99104.56;4473296;32;20161;-84
2022/10/04 08:04:05;;;;;;;6.53;1.90;;;;;;;14.49;62.13;99104.88;4479217;31;20104;-84
2022/10/04 08:06:56;;;;;;;8.73;1.80;;;;;;;14.43;61.96;99110.59;4482844;32;20100;-85
2022/10/04 08:09:32;;;;;;;7.75;1.95;;;;;;;14.64;60.72;99108.38;4462151;32;20108;-83
2022/10/04 08:12:10;;;;;;;6.55;2.03;;;;;;;14.83;60.57;99104.47;4458025;32;20425;-82
2022/10/04 08:14:50;;;;;;;7.62;1.85;;;;;;;14.75;59.48;99110.28;4483039;32;20088;-84
2022/10/04 08:17:41;;;;;;;6.20;2.00;;;;;;;15.18;58.67;99118.00;4483798;31;20510;-83
2022/10/04 08:20:38;;;;;;;8.63;2.03;;;;;;;15.33;58.46;99111.63;4482382;32;20155;-86
2022/10/04 08:23:40;;;;;;;7.37;1.70;;;;;;;15.84;55.94;99116.09;4471929;32;20104;-83
2022/10/04 08:26:23;;;;;;;7.87;2.00;;;;;;;15.98;54.94;99132.87;4457137;32;20111;-86
2022/10/04 08:32:08;;;;;;;5.78;1.80;;;;;;;15.52;55.44;99127.13;4471441;32;20153;-84
2022/10/04 08:35:00;;;;;;;6.30;1.67;;;;;;;16.00;54.73;99129.12;4483357;32;20168;-82
2022/10/04 08:37:32;;;;;;;7.10;1.80;;;;;;;16.06;54.86;99127.84;4475909;32;20463;-84
2022/10/04 08:40:15;;;;;;;5.30;1.60;;;;;;;16.46;53.56;99124.97;4470127;32;20097;-85
2022/10/04 08:43:08;;;;;;;4.85;2.00;;;;;;;15.94;54.81;99123.44;4472388;32;20127;-88
2022/10/04 08:46:03;;;;;;;7.10;2.12;;;;;;;15.97;54.88;99124.03;4482475;31;20104;-86
2022/10/04 08:48:41;;;;;;;5.60;1.48;;;;;;;15.97;54.78;99133.81;4477683;32;20423;-83
2022/10/04 08:51:10;;;;;;;;;;;;;;;15.86;54.99;99123.97;4473287;32;20077;-86
2022/10/04 08:53:47;;;;;;;7.10;1.70;;;;;;;15.79;56.00;99118.22;4476927;32;19987;-82
2022/10/04 08:56:34;;;;;;;5.72;1.58;;;;;;;15.55;56.28;99128.75;4483545;31;20438;-81
2022/10/04 08:59:37;;;;;;;5.80;1.70;;;;;;;16.00;55.25;99138.94;4477918;32;20115;-83
2022/10/04 09:02:06;;;;;;;5.25;1.70;;;;;;;16.11;55.26;99147.84;4480242;32;20103;-83
2022/10/04 09:04:55;;;;;;;6.62;1.70;;;;;;;16.22;54.13;99141.72;4484132;31;20926;-84
2022/10/04 09:07:58;;;;;;;5.57;1.50;;;;;;;15.89;55.34;99139.69;4483230;31;20104;-85
2022/10/04 09:10:34;;;;;;;8.23;1.52;;;;;;;16.36;53.14;99139.87;4483989;32;20163;-83
2022/10/04 09:13:36;;;;;;;6.62;1.60;;;;;;;16.36;51.77;99140.75;4460617;32;20089;-82
2022/10/04 09:16:11;;;;;;;5.62;1.60;;;;;;;16.54;51.63;99127.06;4479350;32;20096;-83
2022/10/04 09:19:10;;;;;;;5.47;1.50;;;;;;;16.48;52.21;99118.56;4470509;32;20072;-86
2022/10/04 09:22:01;;;;;;;5.28;1.48;;;;;;;16.12;52.04;99119.44;4474075;32;20150;-80
2022/10/04 09:24:32;;;;;;;4.22;1.50;;;;;;;15.87;53.61;99129.16;4481481;32;20088;-85
2022/10/04 09:27:24;;;;;;;5.93;1.50;;;;;;;15.87;53.44;99117.69;4483539;32;20099;-81
2022/10/04 09:30:13;;;;;;;4.18;1.40;;;;;;;16.52;51.62;99132.50;4484406;31;20464;-81
2022/10/04 09:33:00;;;;;;;5.57;1.50;;;;;;;15.97;51.94;99149.75;4455790;32;20103;-85
2022/10/04 09:35:56;;;;;;;6.10;1.60;;;;;;;16.09;51.61;99130.31;4483757;32;20097;-81
2022/10/04 09:38:34;;;;;;;7.47;1.70;;;;;;;15.63;53.32;99129.06;4484240;32;20168;-82
2022/10/04 09:41:02;;;;;;;6.22;1.62;;;;;;;16.38;52.18;99127.31;4483510;31;20131;-91
2022/10/04 09:43:34;;;;;;;10.85;1.60;;;;;;;16.21;51.88;99140.03;4483999;32;20078;-90
2022/10/04 09:46:06;;;;;;;5.12;1.37;;;;;;;15.87;52.72;99146.91;4472046;32;20080;-88
2022/10/04 09:48:44;;;;;;;6.03;1.48;;;;;;;15.86;53.13;99145.22;4481999;32;20454;-78
2022/10/04 09:51:26;;;;;;;4.87;1.50;;;;;;;16.03;52.54;99151.97;4482883;32;20132;-81
2022/10/04 09:54:27;;;;;;;8.50;2.03;;;;;;;16.12;52.80;99156.66;4483302;32;20613;-81
2022/10/04 09:57:43;;;;;;;3.70;1.30;;;;;;;16.29;53.07;99142.16;4394346;32;20144;-77
2022/10/04 10:00:23;;;;;;;6.05;1.70;;;;;;;16.97;51.12;99140.69;4373369;32;20134;-78
2022/10/04 10:03:02;;;;;;;5.55;1.70;;;;;;;16.63;51.69;99147.63;4362881;32;20141;-78
2022/10/04 10:05:48;;;;;;;5.95;1.50;;;;;;;16.62;52.09;99149.47;4359612;32;20107;-77
2022/10/04 10:08:29;;;;;;;6.53;1.20;;;;;;;16.74;51.72;99152.19;4371256;32;20121;-81
2022/10/04 10:14:51;;;;;;;6.28;1.30;;;;;;;16.46;50.35;99165.69;4362825;32;20136;-81
2022/10/04 10:17:39;;;;;;;4.57;1.20;;;;;;;16.60;50.75;99161.19;4373227;32;20510;-82
2022/10/04 10:20:07;;;;;;;5.57;1.40;;;;;;;16.50;51.49;99176.97;4374577;32;20120;-84
2022/10/04 10:23:00;;;;;;;6.47;1.37;;;;;;;16.17;52.70;99174.91;4373074;32;20103;-82
2022/10/04 10:25:27;;;;;;;7.40;1.40;;;;;;;16.65;51.22;99170.53;4359908;32;20098;-84
2022/10/04 10:28:10;;;;;;;6.32;1.50;;;;;;;16.50;51.70;99164.50;4359651;32;20143;-85
2022/10/04 10:30:44;;;;;;;4.62;1.10;;;;;;;16.74;51.21;99163.66;4384457;32;20185;-83
2022/10/04 10:33:21;;;;;;;4.72;1.37;;;;;;;16.44;51.60;99175.59;4423729;32;20116;-79
2022/10/04 10:35:57;;;;;;;4.75;1.50;;;;;;;16.12;52.30;99169.94;4477945;32;20131;-85
2022/10/04 10:38:41;;;;;;;3.50;1.20;;;;;;;16.60;51.10;99171.81;4469223;32;20092;-85
2022/10/04 10:41:11;;;;;;;5.85;1.23;;;;;;;16.55;50.82;99165.97;4476274;32;20093;-88
2022/10/04 10:44:00;;;;;;;6.75;1.30;;;;;;;16.39;50.58;99179.53;4474199;32;20153;-88
2022/10/04 10:46:52;;;;;;;7.72;1.45;;;;;;;16.20;51.51;99172.88;4486356;32;20157;-86
2022/10/04 10:49:43;;;;;;;5.45;1.42;;;;;;;16.39;51.05;99180.38;4471844;32;20100;-85
2022/10/04 10:52:46;;;;;;;7.12;1.37;;;;;;;16.20;51.71;99172.88;4486197;32;20510;-85
2022/10/04 10:55:40;;;;;;;3.60;1.17;;;;;;;16.13;51.14;99163.69;4485170;32;20123;-85
2022/10/04 10:58:14;;;;;;;6.35;1.40;;;;;;;16.55;50.73;99158.84;4485245;32;20524;-93
2022/10/04 11:01:20;;;;;;;6.22;1.40;;;;;;;15.96;50.79;99164.88;4471924;32;20084;-87
2022/10/04 11:04:08;;;;;;;5.03;1.12;;;;;;;15.89;51.51;99171.56;4406584;32;20090;-86
2022/10/04 11:07:01;;;;;;;6.60;1.87;;;;;;;16.18;50.74;99171.31;4406573;32;20165;-82
2022/10/04 11:09:51;;;;;;;4.82;1.40;;;;;;;16.12;51.39;99167.28;4396006;32;20110;-83
2022/10/04 11:12:37;;;;;;;6.62;1.30;;;;;;;16.79;48.90;99158.00;4407821;32;20532;-83
2022/10/04 11:15:27;;;;;;;5.32;1.30;;;;;;;16.29;50.94;99160.75;4408253;32;20090;-82
2022/10/04 11:18:11;;;;;;;3.60;1.10;;;;;;;16.70;49.92;99157.72;4408604;32;20111;-82
2022/10/04 11:20:58;;;;;;;4.28;1.20;;;;;;;17.30;47.51;99168.38;4408393;32;20525;-83
2022/10/04 11:23:44;;;;;;;4.30;1.37;;;;;;;17.64;47.70;99149.81;4408155;32;20120;-82
2022/10/04 11:26:50;;;;;;;7.28;1.65;;;;;;;17.64;47.12;99169.28;4408144;32;20090;-84
2022/10/04 11:29:25;;;;;;;3.55;1.00;;;;;;;17.66;47.35;99155.87;4333436;33;20768;-83
2022/10/04 11:31:59;;;;;;;4.37;1.10;;;;;;;18.28;45.21;99157.19;4333418;33;20182;-88
2022/10/04 11:35:15;;;;;;;7.05;1.48;;;;;;;17.13;46.91;99161.66;4333567;33;20087;-87
2022/10/04 11:37:49;;;;;;;5.03;1.42;;;;;;;17.47;46.46;99159.09;4289667;33;20096;-85
2022/10/04 11:40:46;;;;;;;5.87;1.58;;;;;;;17.74;46.20;99160.59;4356198;32;20099;-84
2022/10/04 11:43:20;;;;;;;4.05;1.50;;;;;;;17.61;46.91;99174.00;4350592;32;20111;-83
2022/10/04 11:46:13;;;;;;;6.00;1.62;;;;;;;17.95;46.57;99166.09;4363092;32;20090;-82
2022/10/04 11:48:52;;;;;;;6.03;1.60;;;;;;;18.45;46.08;99164.69;4350477;32;20087;-82
2022/10/04 11:51:32;;;;;;;6.45;1.60;;;;;;;18.17;46.04;99158.06;4363056;32;20111;-83
2022/10/04 11:54:27;;;;;;;4.78;1.42;;;;;;;18.28;43.96;99151.88;4350661;32;20170;-83
2022/10/04 11:57:04;;;;;;;6.60;1.42;;;;;;;18.23;46.02;99154.91;4333166;33;20111;-83
2022/10/04 11:59:45;;;;;;;5.55;1.80;;;;;;;17.80;46.56;99174.28;4346174;32;20439;-83
2022/10/04 12:02:49;;;;;;;8.30;1.98;;;;;;;17.48;48.22;99174.97;4365409;32;20111;-86
2022/10/04 12:05:26;;;;;;;6.43;1.80;;;;;;;17.53;48.76;99173.75;4304299;33;20171;-94
2022/10/04 12:08:03;;;;;;;7.30;1.90;;;;;;;17.34;49.93;99169.00;4314391;33;20158;-95
2022/10/04 12:10:41;;;;;;;6.03;1.52;;;;;;;17.25;50.30;99167.91;4334544;33;20114;-82
2022/10/04 12:13:09;;;;;;;4.25;1.52;;;;;;;17.14;50.85;99178.50;4320553;33;20178;-82
2022/10/04 12:15:49;;;;;;;4.80;1.60;;;;;;;17.40;50.54;99174.72;4332887;33;20242;-83
2022/10/04 12:18:34;;;;;;;6.00;1.60;;;;;;;17.10;50.24;99176.06;4320717;33;20126;-87
2022/10/04 12:21:22;;;;;;;5.18;1.80;;;;;;;17.19;49.82;99169.22;4320251;33;20107;-89
2022/10/04 12:24:14;;;;;;;5.68;1.70;;;;;;;17.71;49.09;99179.47;4328086;33;159423;-96
2022/10/04 12:27:17;;;;;;;4.95;1.50;;;;;;;17.69;48.66;99177.78;4331194;33;20384;-91
2022/10/04 12:30:03;;;;;;;6.57;1.67;;;;;;;17.53;49.02;99173.75;4347146;32;20111;-90